KDKK

Chautauqua County / Dunkirk Airport

Dunkirk, New York, USA
METAR KDKK 221701Z AUTO 23008KT 10SM FEW005 OVC014 19/18 A2998 RMK AO2 T01890178
Observed Flight Rules
May-22 @ 17:01 UTC (53 minutes ago) Marginal Visual Flight Rules
Wind Visibility Clouds
230° at 8 knots 10 miles
  • Few at 500' AGL
  • Overcast at 1,400' AGL
Temperatures Readings
Current 19°C / 66°F
Dewpoint 18°C / 64°F
Humidity 94%
Altimeter 29.98" Hg
Pressure 1015 hPa
Elevation 202
METAR KDKK 221701Z AUTO 23008KT 10SM FEW005 OVC014 19/18 A2998 RMK AO2 T01890178
Observed Flight Rules
May-22 @ 17:01 UTC
(53 minutes ago)
MVFR
Wind Visibility
230° at 8 knots 10 miles
Clouds
  • Few at 500' AGL
  • Overcast at 1,400' AGL
Temperature Dewpoint
19°C / 66°F 18°C / 64°F
Humidity Altimeter Pressure
94% 29.98" Hg 1015 hPa